sensor_id;sensor_type;location;lat;lon;timestamp;pressure;altitude;pressure_sealevel;temperature;humidity
25238;BME280;13185;50.872;5.306;2023-03-23T00:02:14;100047.16;;;11.82;97.77
25238;BME280;13185;50.872;5.306;2023-03-23T00:04:39;100053.50;;;11.81;98.11
25238;BME280;13185;50.872;5.306;2023-03-23T00:07:08;100053.50;;;11.81;98.01
25238;BME280;13185;50.872;5.306;2023-03-23T00:09:33;100053.63;;;11.79;98.28
25238;BME280;13185;50.872;5.306;2023-03-23T00:12:07;100043.00;;;11.78;98.54
25238;BME280;13185;50.872;5.306;2023-03-23T00:14:33;100032.25;;;11.78;98.43
25238;BME280;13185;50.872;5.306;2023-03-23T00:17:08;100031.25;;;11.79;98.59
25238;BME280;13185;50.872;5.306;2023-03-23T00:19:38;100029.47;;;11.79;98.74
25238;BME280;13185;50.872;5.306;2023-03-23T00:22:14;100030.19;;;11.81;98.70
25238;BME280;13185;50.872;5.306;2023-03-23T00:24:41;100040.94;;;11.81;99.00
25238;BME280;13185;50.872;5.306;2023-03-23T00:27:07;100047.28;;;11.80;99.25
25238;BME280;13185;50.872;5.306;2023-03-23T00:29:34;100045.44;;;11.81;99.38
25238;BME280;13185;50.872;5.306;2023-03-23T00:32:00;100055.94;;;11.84;99.59
25238;BME280;13185;50.872;5.306;2023-03-23T00:34:30;100053.25;;;11.84;99.59
25238;BME280;13185;50.872;5.306;2023-03-23T00:36:59;100047.03;;;11.83;99.78
25238;BME280;13185;50.872;5.306;2023-03-23T00:39:27;100055.66;;;11.87;99.95
25238;BME280;13185;50.872;5.306;2023-03-23T00:41:53;100059.34;;;11.86;99.83
25238;BME280;13185;50.872;5.306;2023-03-23T00:44:30;100036.84;;;11.87;99.77
25238;BME280;13185;50.872;5.306;2023-03-23T00:46:57;100034.19;;;11.87;99.70
25238;BME280;13185;50.872;5.306;2023-03-23T00:49:24;100036.84;;;11.87;99.74
25238;BME280;13185;50.872;5.306;2023-03-23T00:51:55;100040.41;;;11.88;100.00
25238;BME280;13185;50.872;5.306;2023-03-23T00:54:23;100042.50;;;11.84;100.00
25238;BME280;13185;50.872;5.306;2023-03-23T00:56:49;100034.56;;;11.82;100.00
25238;BME280;13185;50.872;5.306;2023-03-23T00:59:15;100020.16;;;11.83;100.00
25238;BME280;13185;50.872;5.306;2023-03-23T01:01:41;100017.47;;;11.83;100.00
25238;BME280;13185;50.872;5.306;2023-03-23T01:04:06;100006.84;;;11.82;100.00
25238;BME280;13185;50.872;5.306;2023-03-23T01:06:36;100009.66;;;11.80;100.00
25238;BME280;13185;50.872;5.306;2023-03-23T01:09:07;100030.31;;;11.80;100.00
25238;BME280;13185;50.872;5.306;2023-03-23T01:11:33;100023.19;;;11.79;100.00
25238;BME280;13185;50.872;5.306;2023-03-23T01:13:59;99993.75;;;11.77;100.00
25238;BME280;13185;50.872;5.306;2023-03-23T01:16:25;100031.50;;;11.76;100.00
25238;BME280;13185;50.872;5.306;2023-03-23T01:18:51;100021.00;;;11.73;100.00
25238;BME280;13185;50.872;5.306;2023-03-23T01:21:19;99999.53;;;11.73;100.00
25238;BME280;13185;50.872;5.306;2023-03-23T01:23:45;100022.00;;;11.72;100.00
25238;BME280;13185;50.872;5.306;2023-03-23T01:26:17;100028.34;;;11.71;100.00
25238;BME280;13185;50.872;5.306;2023-03-23T01:28:43;100023.09;;;11.69;100.00
25238;BME280;13185;50.872;5.306;2023-03-23T01:31:12;100020.56;;;11.68;100.00
25238;BME280;13185;50.872;5.306;2023-03-23T01:33:39;100002.00;;;11.65;100.00
25238;BME280;13185;50.872;5.306;2023-03-23T01:36:09;100012.84;;;11.63;100.00
25238;BME280;13185;50.872;5.306;2023-03-23T01:38:36;100012.84;;;11.63;100.00
25238;BME280;13185;50.872;5.306;2023-03-23T01:41:03;100015.69;;;11.62;100.00
25238;BME280;13185;50.872;5.306;2023-03-23T01:43:29;100025.69;;;11.60;100.00
25238;BME280;13185;50.872;5.306;2023-03-23T01:45:55;100025.56;;;11.61;100.00
25238;BME280;13185;50.872;5.306;2023-03-23T01:51:09;100008.59;;;11.61;100.00
25238;BME280;13185;50.872;5.306;2023-03-23T01:53:40;100019.22;;;11.62;100.00
25238;BME280;13185;50.872;5.306;2023-03-23T01:56:09;100002.97;;;11.64;100.00
25238;BME280;13185;50.872;5.306;2023-03-23T01:58:37;100009.19;;;11.64;100.00
25238;BME280;13185;50.872;5.306;2023-03-23T02:01:07;100005.66;;;11.64;100.00
25238;BME280;13185;50.872;5.306;2023-03-23T02:03:38;99988.56;;;11.65;100.00
25238;BME280;13185;50.872;5.306;2023-03-23T02:06:05;99985.75;;;11.66;100.00
25238;BME280;13185;50.872;5.306;2023-03-23T02:08:40;99991.25;;;11.65;100.00
25238;BME280;13185;50.872;5.306;2023-03-23T02:11:12;99989.41;;;11.65;100.00
25238;BME280;13185;50.872;5.306;2023-03-23T02:13:39;99979.50;;;11.66;100.00
25238;BME280;13185;50.872;5.306;2023-03-23T02:16:11;99986.72;;;11.65;100.00
25238;BME280;13185;50.872;5.306;2023-03-23T02:21:53;99977.81;;;11.65;100.00
25238;BME280;13185;50.872;5.306;2023-03-23T02:24:53;99972.31;;;11.66;100.00
25238;BME280;13185;50.872;5.306;2023-03-23T02:27:39;99983.91;;;11.67;100.00
25238;BME280;13185;50.872;5.306;2023-03-23T02:33:29;99974.16;;;11.66;100.00
25238;BME280;13185;50.872;5.306;2023-03-23T02:36:09;99973.16;;;11.67;100.00
25238;BME280;13185;50.872;5.306;2023-03-23T02:39:12;99974.03;;;11.67;100.00
25238;BME280;13185;50.872;5.306;2023-03-23T02:41:49;99962.31;;;11.68;100.00
25238;BME280;13185;50.872;5.306;2023-03-23T02:44:17;99967.69;;;11.68;100.00
25238;BME280;13185;50.872;5.306;2023-03-23T02:46:43;99969.53;;;11.68;100.00
25238;BME280;13185;50.872;5.306;2023-03-23T02:49:12;99976.84;;;11.66;100.00
25238;BME280;13185;50.872;5.306;2023-03-23T02:51:43;99965.09;;;11.67;100.00
25238;BME280;13185;50.872;5.306;2023-03-23T02:54:12;99961.56;;;11.66;100.00
25238;BME280;13185;50.872;5.306;2023-03-23T02:56:40;99963.41;;;11.66;100.00
25238;BME280;13185;50.872;5.306;2023-03-23T02:59:13;99962.56;;;11.65;100.00
25238;BME280;13185;50.872;5.306;2023-03-23T03:04:10;99965.09;;;11.67;100.00
25238;BME280;13185;50.872;5.306;2023-03-23T03:10:28;99958.16;;;11.64;100.00
25238;BME280;13185;50.872;5.306;2023-03-23T03:12:57;99959.16;;;11.63;100.00
25238;BME280;13185;50.872;5.306;2023-03-23T03:15:34;99960.00;;;11.64;100.00
25238;BME280;13185;50.872;5.306;2023-03-23T03:18:09;99955.47;;;11.64;100.00
25238;BME280;13185;50.872;5.306;2023-03-23T03:20:43;99958.03;;;11.66;100.00
25238;BME280;13185;50.872;5.306;2023-03-23T03:23:12;99964.25;;;11.66;100.00
25238;BME280;13185;50.872;5.306;2023-03-23T03:25:42;99975.84;;;11.67;100.00
25238;BME280;13185;50.872;5.306;2023-03-23T03:28:16;99972.22;;;11.68;99.43
25238;BME280;13185;50.872;5.306;2023-03-23T03:30:45;99979.28;;;11.69;99.12
25238;BME280;13185;50.872;5.306;2023-03-23T03:33:12;99995.25;;;11.70;98.55
25238;BME280;13185;50.872;5.306;2023-03-23T03:35:40;99988.91;;;11.71;98.16
25238;BME280;13185;50.872;5.306;2023-03-23T03:38:09;99981.69;;;11.72;97.93
25238;BME280;13185;50.872;5.306;2023-03-23T03:40:35;99978.16;;;11.71;97.81
25238;BME280;13185;50.872;5.306;2023-03-23T03:43:01;99978.16;;;11.71;97.27
25238;BME280;13185;50.872;5.306;2023-03-23T03:45:27;99978.16;;;11.71;97.21
25238;BME280;13185;50.872;5.306;2023-03-23T03:47:52;99979.16;;;11.70;96.95
25238;BME280;13185;50.872;5.306;2023-03-23T03:50:18;99981.84;;;11.70;96.79
25238;BME280;13185;50.872;5.306;2023-03-23T03:52:44;99977.31;;;11.71;96.85
25238;BME280;13185;50.872;5.306;2023-03-23T03:55:10;99987.34;;;11.69;96.55
25238;BME280;13185;50.872;5.306;2023-03-23T03:57:39;99991.72;;;11.70;96.14
25238;BME280;13185;50.872;5.306;2023-03-23T04:00:44;99996.25;;;11.69;96.49
25238;BME280;13185;50.872;5.306;2023-03-23T04:03:17;99990.16;;;11.67;96.51
25238;BME280;13185;50.872;5.306;2023-03-23T04:05:54;99991.09;;;11.66;95.83
25238;BME280;13185;50.872;5.306;2023-03-23T04:08:22;99990.16;;;11.67;95.63
25238;BME280;13185;50.872;5.306;2023-03-23T04:10:48;99985.63;;;11.68;95.50
25238;BME280;13185;50.872;5.306;2023-03-23T04:13:15;99991.88;;;11.68;95.27
25238;BME280;13185;50.872;5.306;2023-03-23T04:16:01;99993.56;;;11.69;94.84
25238;BME280;13185;50.872;5.306;2023-03-23T04:18:27;99991.00;;;11.68;95.28
25238;BME280;13185;50.872;5.306;2023-03-23T04:20:55;99989.19;;;11.68;94.68
25238;BME280;13185;50.872;5.306;2023-03-23T04:23:26;99992.84;;;11.67;94.79
25238;BME280;13185;50.872;5.306;2023-03-23T04:25:53;100003.59;;;11.67;94.89
25238;BME280;13185;50.872;5.306;2023-03-23T04:28:25;100001.00;;;11.66;94.76
25238;BME280;13185;50.872;5.306;2023-03-23T04:31:11;99995.63;;;11.66;94.54
25238;BME280;13185;50.872;5.306;2023-03-23T04:33:41;100002.84;;;11.65;94.66
25238;BME280;13185;50.872;5.306;2023-03-23T04:36:07;100011.88;;;11.64;94.57
25238;BME280;13185;50.872;5.306;2023-03-23T04:38:37;100009.19;;;11.64;94.21
25238;BME280;13185;50.872;5.306;2023-03-23T04:41:10;100012.00;;;11.63;93.99
25238;BME280;13185;50.872;5.306;2023-03-23T04:43:50;100010.31;;;11.62;93.90
25238;BME280;13185;50.872;5.306;2023-03-23T04:46:25;100011.28;;;11.61;93.27
25238;BME280;13185;50.872;5.306;2023-03-23T04:48:54;100011.28;;;11.61;93.51
25238;BME280;13185;50.872;5.306;2023-03-23T04:51:27;100016.78;;;11.59;93.25
25238;BME280;13185;50.872;5.306;2023-03-23T04:53:54;100010.56;;;11.59;92.72
25238;BME280;13185;50.872;5.306;2023-03-23T04:56:21;100013.25;;;11.59;92.51
25238;BME280;13185;50.872;5.306;2023-03-23T04:58:47;100017.78;;;11.58;92.35
25238;BME280;13185;50.872;5.306;2023-03-23T05:01:31;100014.22;;;11.57;92.27
25238;BME280;13185;50.872;5.306;2023-03-23T05:04:19;100004.34;;;11.58;91.76
25238;BME280;13185;50.872;5.306;2023-03-23T05:06:56;100017.88;;;11.56;91.92
25238;BME280;13185;50.872;5.306;2023-03-23T05:09:27;100013.47;;;11.55;91.98
25238;BME280;13185;50.872;5.306;2023-03-23T05:11:53;100016.31;;;11.54;92.27
25238;BME280;13185;50.872;5.306;2023-03-23T05:14:19;100015.56;;;11.52;91.96
25238;BME280;13185;50.872;5.306;2023-03-23T05:16:55;100016.56;;;11.51;92.11
25238;BME280;13185;50.872;5.306;2023-03-23T05:19:24;100014.84;;;11.50;91.88
25238;BME280;13185;50.872;5.306;2023-03-23T05:21:51;100025.47;;;11.51;92.04
25238;BME280;13185;50.872;5.306;2023-03-23T05:24:16;100024.75;;;11.49;92.36
25238;BME280;13185;50.872;5.306;2023-03-23T05:26:43;100015.84;;;11.49;92.15
25238;BME280;13185;50.872;5.306;2023-03-23T05:29:19;100029.41;;;11.47;92.28
25238;BME280;13185;50.872;5.306;2023-03-23T05:31:53;100025.84;;;11.47;92.62
25238;BME280;13185;50.872;5.306;2023-03-23T05:34:21;100026.81;;;11.46;92.79
25238;BME280;13185;50.872;5.306;2023-03-23T05:36:51;100034.13;;;11.44;92.71
25238;BME280;13185;50.872;5.306;2023-03-23T05:39:29;100030.59;;;11.43;92.92
25238;BME280;13185;50.872;5.306;2023-03-23T05:42:12;100022.69;;;11.42;93.02
25238;BME280;13185;50.872;5.306;2023-03-23T05:44:50;100030.13;;;11.38;92.99
25238;BME280;13185;50.872;5.306;2023-03-23T05:47:16;100023.91;;;11.38;93.27
25238;BME280;13185;50.872;5.306;2023-03-23T05:49:49;100026.72;;;11.36;93.16
25238;BME280;13185;50.872;5.306;2023-03-23T05:52:18;100023.06;;;11.37;93.33
25238;BME280;13185;50.872;5.306;2023-03-23T05:54:45;100007.06;;;11.36;93.45
25238;BME280;13185;50.872;5.306;2023-03-23T05:57:11;100007.06;;;11.36;93.41
25238;BME280;13185;50.872;5.306;2023-03-23T05:59:43;100024.16;;;11.35;93.78
25238;BME280;13185;50.872;5.306;2023-03-23T06:02:15;100018.78;;;11.35;93.77
25238;BME280;13185;50.872;5.306;2023-03-23T06:04:41;100015.38;;;11.33;93.89
25238;BME280;13185;50.872;5.306;2023-03-23T06:07:14;100016.22;;;11.33;93.88
25238;BME280;13185;50.872;5.306;2023-03-23T06:09:47;100033.19;;;11.34;94.31
25238;BME280;13185;50.872;5.306;2023-03-23T06:12:13;100021.47;;;11.35;93.89
25238;BME280;13185;50.872;5.306;2023-03-23T06:15:14;100036.59;;;11.36;94.13
25238;BME280;13185;50.872;5.306;2023-03-23T06:17:59;100043.56;;;11.38;94.17
25238;BME280;13185;50.872;5.306;2023-03-23T06:20:30;100056.00;;;11.39;94.09
25238;BME280;13185;50.872;5.306;2023-03-23T06:22:58;100054.16;;;11.40;93.84
25238;BME280;13185;50.872;5.306;2023-03-23T06:25:30;100056.00;;;11.39;93.50
25238;BME280;13185;50.872;5.306;2023-03-23T06:27:57;100068.19;;;11.43;93.38
25238;BME280;13185;50.872;5.306;2023-03-23T06:30:23;100068.19;;;11.43;93.61
25238;BME280;13185;50.872;5.306;2023-03-23T06:32:49;100073.56;;;11.43;93.27
25238;BME280;13185;50.872;5.306;2023-03-23T06:35:21;100067.34;;;11.43;92.98
25238;BME280;13185;50.872;5.306;2023-03-23T06:37:53;100084.16;;;11.45;93.01
25238;BME280;13185;50.872;5.306;2023-03-23T06:40:28;100072.44;;;11.46;92.65
25238;BME280;13185;50.872;5.306;2023-03-23T06:42:57;100070.38;;;11.49;92.72
25238;BME280;13185;50.872;5.306;2023-03-23T06:45:39;100070.38;;;11.49;92.23
25238;BME280;13185;50.872;5.306;2023-03-23T06:48:23;100078.31;;;11.51;91.74
25238;BME280;13185;50.872;5.306;2023-03-23T06:50:49;100076.22;;;11.54;91.56
25238;BME280;13185;50.872;5.306;2023-03-23T06:53:17;100065.34;;;11.56;91.77
25238;BME280;13185;50.872;5.306;2023-03-23T06:55:44;100069.66;;;11.59;91.46
25238;BME280;13185;50.872;5.306;2023-03-23T06:58:11;100073.31;;;11.57;91.46
25238;BME280;13185;50.872;5.306;2023-03-23T07:00:36;100069.66;;;11.59;91.51
25238;BME280;13185;50.872;5.306;2023-03-23T07:03:02;100075.88;;;11.59;90.96
25238;BME280;13185;50.872;5.306;2023-03-23T07:05:30;100069.53;;;11.60;90.71
25238;BME280;13185;50.872;5.306;2023-03-23T07:07:55;100065.72;;;11.63;90.64
25238;BME280;13185;50.872;5.306;2023-03-23T07:10:43;100057.31;;;11.67;90.34
25238;BME280;13185;50.872;5.306;2023-03-23T07:13:10;100074.16;;;11.69;90.16
25238;BME280;13185;50.872;5.306;2023-03-23T07:15:46;100079.25;;;11.72;89.20
25238;BME280;13185;50.872;5.306;2023-03-23T07:18:11;100061.19;;;11.74;88.76
25238;BME280;13185;50.872;5.306;2023-03-23T07:20:47;100059.97;;;11.78;88.76
25238;BME280;13185;50.872;5.306;2023-03-23T07:23:14;100073.16;;;11.81;88.73
25238;BME280;13185;50.872;5.306;2023-03-23T07:25:55;100065.69;;;11.85;88.40
25238;BME280;13185;50.872;5.306;2023-03-23T07:28:27;100064.56;;;11.88;88.15
25238;BME280;13185;50.872;5.306;2023-03-23T07:30:59;100062.66;;;11.90;87.86
25238;BME280;13185;50.872;5.306;2023-03-23T07:33:24;100065.91;;;11.93;88.12
25238;BME280;13185;50.872;5.306;2023-03-23T07:35:52;100060.41;;;11.95;87.59
25238;BME280;13185;50.872;5.306;2023-03-23T07:38:18;100073.59;;;11.98;87.56
25238;BME280;13185;50.872;5.306;2023-03-23T07:40:47;100082.50;;;11.98;87.66
25238;BME280;13185;50.872;5.306;2023-03-23T07:43:16;100073.34;;;12.01;87.51
25238;BME280;13185;50.872;5.306;2023-03-23T07:46:00;100084.81;;;12.03;87.64
25238;BME280;13185;50.872;5.306;2023-03-23T07:48:34;100088.94;;;12.07;87.76
25238;BME280;13185;50.872;5.306;2023-03-23T07:51:00;100087.38;;;12.04;87.77
25238;BME280;13185;50.872;5.306;2023-03-23T07:53:29;100086.41;;;12.05;87.48
25238;BME280;13185;50.872;5.306;2023-03-23T07:56:11;100090.66;;;12.08;87.85
25238;BME280;13185;50.872;5.306;2023-03-23T07:59:03;100089.44;;;12.12;88.07
25238;BME280;13185;50.872;5.306;2023-03-23T08:01:31;100089.88;;;12.17;88.57
25238;BME280;13185;50.872;5.306;2023-03-23T08:04:17;100098.56;;;12.21;88.18
25238;BME280;13185;50.872;5.306;2023-03-23T08:07:03;100091.22;;;12.23;88.53
25238;BME280;13185;50.872;5.306;2023-03-23T08:09:39;100104.81;;;12.21;88.31
25238;BME280;13185;50.872;5.306;2023-03-23T08:12:27;100118.47;;;12.18;88.42
25238;BME280;13185;50.872;5.306;2023-03-23T08:15:13;100118.88;;;12.13;88.40
25238;BME280;13185;50.872;5.306;2023-03-23T08:18:00;100113.75;;;12.10;89.15
25238;BME280;13185;50.872;5.306;2023-03-23T08:20:45;100121.19;;;12.07;89.43
25238;BME280;13185;50.872;5.306;2023-03-23T08:23:22;100113.28;;;12.05;89.81
25238;BME280;13185;50.872;5.306;2023-03-23T08:26:07;100115.97;;;12.05;89.56
25238;BME280;13185;50.872;5.306;2023-03-23T08:28:53;100118.50;;;12.07;89.20
25238;BME280;13185;50.872;5.306;2023-03-23T08:31:24;100120.22;;;12.08;89.25
25238;BME280;13185;50.872;5.306;2023-03-23T08:34:08;100127.06;;;12.12;89.58
25238;BME280;13185;50.872;5.306;2023-03-23T08:36:52;100114.47;;;12.12;89.38
25238;BME280;13185;50.872;5.306;2023-03-23T08:39:53;100112.25;;;12.18;89.60
25238;BME280;13185;50.872;5.306;2023-03-23T08:42:41;100129.13;;;12.20;89.73
25238;BME280;13185;50.872;5.306;2023-03-23T08:45:26;100128.38;;;12.18;90.03
25238;BME280;13185;50.872;5.306;2023-03-23T08:47:53;100133.28;;;12.12;90.88
25238;BME280;13185;50.872;5.306;2023-03-23T08:50:43;100136.34;;;12.08;91.36
25238;BME280;13185;50.872;5.306;2023-03-23T08:53:47;100138.31;;;12.06;91.50
25238;BME280;13185;50.872;5.306;2023-03-23T08:56:51;100133.19;;;12.03;92.14
25238;BME280;13185;50.872;5.306;2023-03-23T08:59:43;100136.16;;;12.00;92.57
25238;BME280;13185;50.872;5.306;2023-03-23T09:02:20;100135.75;;;12.04;93.03
25238;BME280;13185;50.872;5.306;2023-03-23T09:05:01;100135.38;;;12.09;92.95
25238;BME280;13185;50.872;5.306;2023-03-23T09:08:01;100143.94;;;12.03;93.78
25238;BME280;13185;50.872;5.306;2023-03-23T09:10:28;100156.16;;;11.96;94.96
25238;BME280;13185;50.872;5.306;2023-03-23T09:12:55;100167.56;;;11.88;96.68
25238;BME280;13185;50.872;5.306;2023-03-23T09:15:22;100172.31;;;11.84;98.63
25238;BME280;13185;50.872;5.306;2023-03-23T09:17:50;100179.97;;;11.67;100.00
25238;BME280;13185;50.872;5.306;2023-03-23T09:20:19;100177.28;;;11.55;100.00
25238;BME280;13185;50.872;5.306;2023-03-23T09:22:50;100168.75;;;11.50;100.00
25238;BME280;13185;50.872;5.306;2023-03-23T09:25:18;100168.03;;;11.48;100.00
25238;BME280;13185;50.872;5.306;2023-03-23T09:27:46;100160.97;;;11.47;100.00
25238;BME280;13185;50.872;5.306;2023-03-23T09:30:16;100170.72;;;11.48;100.00
25238;BME280;13185;50.872;5.306;2023-03-23T09:32:44;100179.50;;;11.50;100.00
25238;BME280;13185;50.872;5.306;2023-03-23T09:35:10;100193.06;;;11.49;100.00
25238;BME280;13185;50.872;5.306;2023-03-23T09:37:38;100194.25;;;11.45;100.00
25238;BME280;13185;50.872;5.306;2023-03-23T09:40:07;100203.78;;;11.38;100.00
25238;BME280;13185;50.872;5.306;2023-03-23T09:45:43;100213.75;;;11.24;100.00
25238;BME280;13185;50.872;5.306;2023-03-23T09:50:53;100215.22;;;11.17;100.00
25238;BME280;13185;50.872;5.306;2023-03-23T09:53:25;100211.44;;;11.20;100.00
25238;BME280;13185;50.872;5.306;2023-03-23T09:55:52;100207.66;;;11.22;100.00
25238;BME280;13185;50.872;5.306;2023-03-23T09:58:26;100203.78;;;11.26;100.00
25238;BME280;13185;50.872;5.306;2023-03-23T10:00:57;100212.69;;;11.38;100.00
25238;BME280;13185;50.872;5.306;2023-03-23T10:03:31;100208.78;;;11.53;100.00
25238;BME280;13185;50.872;5.306;2023-03-23T10:05:59;100204.91;;;11.57;100.00
25238;BME280;13185;50.872;5.306;2023-03-23T10:08:30;100202.44;;;11.66;100.00
25238;BME280;13185;50.872;5.306;2023-03-23T10:16:11;100222.22;;;11.65;100.00
25238;BME280;13185;50.872;5.306;2023-03-23T10:19:11;100231.38;;;11.62;100.00
25238;BME280;13185;50.872;5.306;2023-03-23T10:21:44;100237.13;;;11.57;100.00
25238;BME280;13185;50.872;5.306;2023-03-23T10:24:20;100235.41;;;11.56;100.00
25238;BME280;13185;50.872;5.306;2023-03-23T10:27:26;100227.34;;;11.56;100.00
25238;BME280;13185;50.872;5.306;2023-03-23T10:35:06;100213.69;;;11.48;100.00
25238;BME280;13185;50.872;5.306;2023-03-23T10:37:39;100226.97;;;11.50;100.00
25238;BME280;13185;50.872;5.306;2023-03-23T10:40:15;100221.97;;;11.45;100.00
25238;BME280;13185;50.872;5.306;2023-03-23T10:42:42;100213.69;;;11.48;100.00
25238;BME280;13185;50.872;5.306;2023-03-23T10:47:43;100218.09;;;11.61;100.00
25238;BME280;13185;50.872;5.306;2023-03-23T10:50:13;100203.28;;;11.66;100.00
25238;BME280;13185;50.872;5.306;2023-03-23T10:52:44;100208.56;;;11.68;100.00
25238;BME280;13185;50.872;5.306;2023-03-23T10:55:15;100201.47;;;11.67;100.00
25238;BME280;13185;50.872;5.306;2023-03-23T10:57:44;100212.34;;;11.65;100.00
25238;BME280;13185;50.872;5.306;2023-03-23T11:00:21;100219.41;;;11.55;100.00
25238;BME280;13185;50.872;5.306;2023-03-23T11:02:59;100220.25;;;11.55;100.00
25238;BME280;13185;50.872;5.306;2023-03-23T11:07:59;100231.97;;;11.54;100.00
25238;BME280;13185;50.872;5.306;2023-03-23T11:10:38;100233.69;;;11.55;100.00
25238;BME280;13185;50.872;5.306;2023-03-23T11:13:12;100219.53;;;11.53;100.00
25238;BME280;13185;50.872;5.306;2023-03-23T11:15:41;100226.72;;;11.53;100.00
25238;BME280;13185;50.872;5.306;2023-03-23T11:18:11;100227.34;;;11.56;100.00
25238;BME280;13185;50.872;5.306;2023-03-23T11:20:41;100224.19;;;11.63;100.00
25238;BME280;13185;50.872;5.306;2023-03-23T11:23:35;100215.88;;;11.66;100.00
25238;BME280;13185;50.872;5.306;2023-03-23T11:28:51;100202.81;;;11.61;100.00
25238;BME280;13185;50.872;5.306;2023-03-23T11:31:23;100229.44;;;11.64;100.00
25238;BME280;13185;50.872;5.306;2023-03-23T11:33:53;100218.22;;;11.70;100.00
25238;BME280;13185;50.872;5.306;2023-03-23T11:36:20;100204.28;;;11.88;100.00
25238;BME280;13185;50.872;5.306;2023-03-23T11:38:45;100203.41;;;11.98;100.00
25238;BME280;13185;50.872;5.306;2023-03-23T11:41:16;100202.31;;;12.12;100.00
25238;BME280;13185;50.872;5.306;2023-03-23T11:43:45;100210.50;;;12.22;100.00
25238;BME280;13185;50.872;5.306;2023-03-23T11:52:02;100210.97;;;12.59;100.00
25238;BME280;13185;50.872;5.306;2023-03-23T11:54:37;100193.94;;;12.69;100.00
25238;BME280;13185;50.872;5.306;2023-03-23T11:57:09;100199.28;;;12.81;100.00
25238;BME280;13185;50.872;5.306;2023-03-23T11:59:39;100191.88;;;12.94;100.00
25238;BME280;13185;50.872;5.306;2023-03-23T12:14:00;100199.25;;;13.34;100.00
25238;BME280;13185;50.872;5.306;2023-03-23T12:33:21;100197.31;;;13.66;100.00
25238;BME280;13185;50.872;5.306;2023-03-23T12:38:44;100185.53;;;13.67;100.00
25238;BME280;13185;50.872;5.306;2023-03-23T12:41:35;100190.59;;;13.61;100.00
25238;BME280;13185;50.872;5.306;2023-03-23T12:44:12;100186.28;;;13.79;100.00
25238;BME280;13185;50.872;5.306;2023-03-23T12:49:50;100163.66;;;14.01;100.00
25238;BME280;13185;50.872;5.306;2023-03-23T12:52:38;100160.28;;;14.18;100.00
25238;BME280;13185;50.872;5.306;2023-03-23T12:55:21;100168.13;;;14.31;100.00
25238;BME280;13185;50.872;5.306;2023-03-23T13:05:47;100173.03;;;14.16;96.05
25238;BME280;13185;50.872;5.306;2023-03-23T13:08:26;100179.44;;;14.15;94.19
25238;BME280;13185;50.872;5.306;2023-03-23T13:10:59;100170.34;;;14.16;95.03
25238;BME280;13185;50.872;5.306;2023-03-23T13:13:50;100178.19;;;14.19;93.85
25238;BME280;13185;50.872;5.306;2023-03-23T13:16:40;100194.03;;;14.12;93.17
25238;BME280;13185;50.872;5.306;2023-03-23T13:19:17;100208.06;;;13.97;92.66
25238;BME280;13185;50.872;5.306;2023-03-23T13:21:55;100209.31;;;13.93;94.17
25238;BME280;13185;50.872;5.306;2023-03-23T13:24:27;100212.84;;;13.93;94.79
25238;BME280;13185;50.872;5.306;2023-03-23T13:26:54;100208.59;;;13.91;95.12
25238;BME280;13185;50.872;5.306;2023-03-23T13:29:24;100224.16;;;13.77;96.01
25238;BME280;13185;50.872;5.306;2023-03-23T13:32:04;100225.34;;;13.64;95.92
25238;BME280;13185;50.872;5.306;2023-03-23T13:34:31;100224.19;;;13.56;96.65
25238;BME280;13185;50.872;5.306;2023-03-23T13:37:00;100230.81;;;13.52;97.81
25238;BME280;13185;50.872;5.306;2023-03-23T13:39:35;100216.63;;;13.50;98.69
25238;BME280;13185;50.872;5.306;2023-03-23T13:42:03;100218.19;;;13.53;99.78
25238;BME280;13185;50.872;5.306;2023-03-23T13:50:10;100192.91;;;13.35;100.00
25238;BME280;13185;50.872;5.306;2023-03-23T13:58:09;100194.38;;;13.79;100.00
25238;BME280;13185;50.872;5.306;2023-03-23T14:01:03;100192.47;;;14.00;100.00
25238;BME280;13185;50.872;5.306;2023-03-23T14:03:42;100180.56;;;14.12;100.00
25238;BME280;13185;50.872;5.306;2023-03-23T14:06:15;100158.44;;;14.19;99.60
25238;BME280;13185;50.872;5.306;2023-03-23T14:09:30;100153.06;;;14.19;97.49
25238;BME280;13185;50.872;5.306;2023-03-23T14:12:05;100162.69;;;14.21;99.06
25238;BME280;13185;50.872;5.306;2023-03-23T14:14:42;100151.34;;;14.27;98.96
25238;BME280;13185;50.872;5.306;2023-03-23T14:17:41;100140.56;;;14.18;94.82
25238;BME280;13185;50.872;5.306;2023-03-23T14:20:05;100149.19;;;14.11;93.85
25238;BME280;13185;50.872;5.306;2023-03-23T14:22:37;100138.13;;;14.14;94.50
25238;BME280;13185;50.872;5.306;2023-03-23T14:25:17;100136.88;;;14.19;93.68
25238;BME280;13185;50.872;5.306;2023-03-23T14:27:44;100138.28;;;14.23;93.74
25238;BME280;13185;50.872;5.306;2023-03-23T14:30:17;100130.66;;;14.28;92.85
25238;BME280;13185;50.872;5.306;2023-03-23T14:32:43;100136.44;;;14.33;92.84
25238;BME280;13185;50.872;5.306;2023-03-23T14:35:23;100126.22;;;14.36;91.94
25238;BME280;13185;50.872;5.306;2023-03-23T14:37:52;100115.28;;;14.38;92.42
25238;BME280;13185;50.872;5.306;2023-03-23T14:40:18;100112.47;;;14.30;90.88
25238;BME280;13185;50.872;5.306;2023-03-23T14:42:44;100117.56;;;14.23;90.79
25238;BME280;13185;50.872;5.306;2023-03-23T14:45:14;100125.66;;;14.23;90.97
25238;BME280;13185;50.872;5.306;2023-03-23T14:47:45;100114.72;;;14.25;91.09
25238;BME280;13185;50.872;5.306;2023-03-23T14:50:35;100122.81;;;14.34;91.43
25238;BME280;13185;50.872;5.306;2023-03-23T14:53:11;100118.88;;;14.48;90.28
25238;BME280;13185;50.872;5.306;2023-03-23T14:55:41;100107.97;;;14.50;88.44
25238;BME280;13185;50.872;5.306;2023-03-23T14:58:08;100120.47;;;14.51;88.29